sensor_id;sensor_type;location;lat;lon;timestamp;pressure;altitude;pressure_sealevel;temperature;humidity
73518;BME280;61766;60.318;25.044;2023-06-04T00:01:24;101166.83;;;11.76;43.86
73518;BME280;61766;60.318;25.044;2023-06-04T00:03:49;101165.78;;;11.79;43.44
73518;BME280;61766;60.318;25.044;2023-06-04T00:06:15;101160.04;;;12.40;42.52
73518;BME280;61766;60.318;25.044;2023-06-04T00:08:40;101157.27;;;12.74;42.06
73518;BME280;61766;60.318;25.044;2023-06-04T00:11:05;101151.26;;;12.21;42.86
73518;BME280;61766;60.318;25.044;2023-06-04T00:13:30;101152.40;;;12.24;43.51
73518;BME280;61766;60.318;25.044;2023-06-04T00:15:55;101158.74;;;11.80;44.36
73518;BME280;61766;60.318;25.044;2023-06-04T00:18:20;101158.74;;;11.66;44.66
73518;BME280;61766;60.318;25.044;2023-06-04T00:20:45;101154.11;;;11.82;43.95
73518;BME280;61766;60.318;25.044;2023-06-04T00:23:10;101150.21;;;12.07;44.03
73518;BME280;61766;60.318;25.044;2023-06-04T00:25:35;101150.43;;;11.77;44.62
73518;BME280;61766;60.318;25.044;2023-06-04T00:28:00;101146.44;;;11.53;45.05
73518;BME280;61766;60.318;25.044;2023-06-04T00:30:25;101145.55;;;11.32;45.49
73518;BME280;61766;60.318;25.044;2023-06-04T00:32:50;101145.16;;;11.78;44.62
73518;BME280;61766;60.318;25.044;2023-06-04T00:35:16;101145.89;;;11.76;44.64
73518;BME280;61766;60.318;25.044;2023-06-04T00:37:40;101141.63;;;11.94;43.91
73518;BME280;61766;60.318;25.044;2023-06-04T00:40:07;101138.88;;;12.18;43.68
73518;BME280;61766;60.318;25.044;2023-06-04T00:42:31;101136.22;;;12.06;43.57
73518;BME280;61766;60.318;25.044;2023-06-04T00:44:56;101138.11;;;11.52;45.07
73518;BME280;61766;60.318;25.044;2023-06-04T00:47:21;101133.23;;;11.73;44.82
73518;BME280;61766;60.318;25.044;2023-06-04T00:49:46;101126.45;;;11.71;44.39
73518;BME280;61766;60.318;25.044;2023-06-04T00:52:12;101126.49;;;11.94;44.46
73518;BME280;61766;60.318;25.044;2023-06-04T00:54:36;101121.91;;;12.08;43.75
73518;BME280;61766;60.318;25.044;2023-06-04T00:57:01;101120.08;;;12.21;42.97
73518;BME280;61766;60.318;25.044;2023-06-04T00:59:27;101117.68;;;12.21;43.33
73518;BME280;61766;60.318;25.044;2023-06-04T01:01:56;101119.01;;;12.28;42.66
73518;BME280;61766;60.318;25.044;2023-06-04T01:04:20;101117.33;;;12.25;42.83
73518;BME280;61766;60.318;25.044;2023-06-04T01:06:43;101118.41;;;12.23;42.96
73518;BME280;61766;60.318;25.044;2023-06-04T01:09:07;101117.64;;;12.00;43.21
73518;BME280;61766;60.318;25.044;2023-06-04T01:11:33;101115.83;;;12.52;42.86
73518;BME280;61766;60.318;25.044;2023-06-04T01:13:56;101118.10;;;12.16;43.02
73518;BME280;61766;60.318;25.044;2023-06-04T01:16:22;101119.09;;;12.15;43.58
73518;BME280;61766;60.318;25.044;2023-06-04T01:18:47;101118.21;;;12.11;43.83
73518;BME280;61766;60.318;25.044;2023-06-04T01:21:12;101112.63;;;12.31;43.97
73518;BME280;61766;60.318;25.044;2023-06-04T01:23:44;101109.06;;;11.85;44.44
73518;BME280;61766;60.318;25.044;2023-06-04T01:26:03;101111.47;;;11.87;44.94
73518;BME280;61766;60.318;25.044;2023-06-04T01:28:27;101113.11;;;12.11;44.51
73518;BME280;61766;60.318;25.044;2023-06-04T01:30:52;101111.00;;;11.77;45.24
73518;BME280;61766;60.318;25.044;2023-06-04T01:33:18;101109.98;;;11.99;44.82
73518;BME280;61766;60.318;25.044;2023-06-04T01:35:43;101112.25;;;11.34;46.07
73518;BME280;61766;60.318;25.044;2023-06-04T01:38:08;101109.79;;;11.48;45.58
73518;BME280;61766;60.318;25.044;2023-06-04T01:40:32;101104.48;;;11.91;45.29
73518;BME280;61766;60.318;25.044;2023-06-04T01:42:58;101102.15;;;12.03;45.06
73518;BME280;61766;60.318;25.044;2023-06-04T01:45:24;101102.32;;;11.93;45.20
73518;BME280;61766;60.318;25.044;2023-06-04T01:47:48;101102.83;;;11.95;44.69
73518;BME280;61766;60.318;25.044;2023-06-04T01:50:13;101099.76;;;11.75;44.99
73518;BME280;61766;60.318;25.044;2023-06-04T01:52:39;101099.30;;;12.18;44.33
73518;BME280;61766;60.318;25.044;2023-06-04T01:55:04;101099.95;;;11.83;44.59
73518;BME280;61766;60.318;25.044;2023-06-04T01:57:28;101099.14;;;12.33;43.90
73518;BME280;61766;60.318;25.044;2023-06-04T01:59:53;101095.74;;;12.16;44.30
73518;BME280;61766;60.318;25.044;2023-06-04T02:02:19;101094.00;;;11.77;44.62
73518;BME280;61766;60.318;25.044;2023-06-04T02:04:43;101095.08;;;11.67;44.41
73518;BME280;61766;60.318;25.044;2023-06-04T02:07:09;101097.74;;;12.12;44.37
73518;BME280;61766;60.318;25.044;2023-06-04T02:09:34;101102.10;;;11.15;46.03
73518;BME280;61766;60.318;25.044;2023-06-04T02:11:59;101105.07;;;11.33;46.77
73518;BME280;61766;60.318;25.044;2023-06-04T02:14:24;101098.59;;;11.30;46.44
73518;BME280;61766;60.318;25.044;2023-06-04T02:16:49;101097.83;;;11.40;45.60
73518;BME280;61766;60.318;25.044;2023-06-04T02:19:14;101098.07;;;11.75;45.13
73518;BME280;61766;60.318;25.044;2023-06-04T02:21:39;101095.13;;;12.17;44.28
73518;BME280;61766;60.318;25.044;2023-06-04T02:24:04;101095.55;;;12.04;44.28
73518;BME280;61766;60.318;25.044;2023-06-04T02:26:29;101097.04;;;12.03;44.11
73518;BME280;61766;60.318;25.044;2023-06-04T02:28:54;101098.77;;;12.16;43.23
73518;BME280;61766;60.318;25.044;2023-06-04T02:31:19;101092.68;;;12.10;43.98
73518;BME280;61766;60.318;25.044;2023-06-04T02:33:44;101100.60;;;11.88;44.53
73518;BME280;61766;60.318;25.044;2023-06-04T02:36:09;101098.38;;;11.62;44.60
73518;BME280;61766;60.318;25.044;2023-06-04T02:38:35;101091.11;;;11.72;44.42
73518;BME280;61766;60.318;25.044;2023-06-04T02:41:00;101092.17;;;11.62;44.99
73518;BME280;61766;60.318;25.044;2023-06-04T02:43:24;101095.48;;;11.87;44.67
73518;BME280;61766;60.318;25.044;2023-06-04T02:45:50;101086.90;;;11.71;44.72
73518;BME280;61766;60.318;25.044;2023-06-04T02:48:15;101086.29;;;11.43;45.44
73518;BME280;61766;60.318;25.044;2023-06-04T02:50:40;101087.16;;;11.85;44.75
73518;BME280;61766;60.318;25.044;2023-06-04T02:53:05;101083.94;;;11.76;44.85
73518;BME280;61766;60.318;25.044;2023-06-04T02:55:30;101079.54;;;12.17;44.64
73518;BME280;61766;60.318;25.044;2023-06-04T02:57:56;101082.44;;;11.57;45.82
73518;BME280;61766;60.318;25.044;2023-06-04T03:00:21;101085.86;;;11.24;46.50
73518;BME280;61766;60.318;25.044;2023-06-04T03:02:47;101078.66;;;11.66;46.13
73518;BME280;61766;60.318;25.044;2023-06-04T03:05:12;101071.38;;;11.82;45.68
73518;BME280;61766;60.318;25.044;2023-06-04T03:07:36;101073.48;;;11.95;45.12
73518;BME280;61766;60.318;25.044;2023-06-04T03:10:01;101077.26;;;11.60;46.11
73518;BME280;61766;60.318;25.044;2023-06-04T03:12:26;101075.53;;;11.74;45.73
73518;BME280;61766;60.318;25.044;2023-06-04T03:14:51;101072.72;;;11.72;45.28
73518;BME280;61766;60.318;25.044;2023-06-04T03:17:16;101072.94;;;11.86;44.66
73518;BME280;61766;60.318;25.044;2023-06-04T03:19:41;101073.27;;;11.80;44.58
73518;BME280;61766;60.318;25.044;2023-06-04T03:22:07;101076.79;;;12.58;44.21
73518;BME280;61766;60.318;25.044;2023-06-04T03:24:34;101075.89;;;12.06;45.04
73518;BME280;61766;60.318;25.044;2023-06-04T03:26:56;101069.62;;;11.76;45.71
73518;BME280;61766;60.318;25.044;2023-06-04T03:29:21;101066.59;;;12.05;45.80
73518;BME280;61766;60.318;25.044;2023-06-04T03:31:46;101066.35;;;12.20;44.84
73518;BME280;61766;60.318;25.044;2023-06-04T03:34:11;101066.63;;;11.90;45.18
73518;BME280;61766;60.318;25.044;2023-06-04T03:36:36;101060.42;;;12.23;44.97
73518;BME280;61766;60.318;25.044;2023-06-04T03:39:02;101056.89;;;12.14;44.49
73518;BME280;61766;60.318;25.044;2023-06-04T03:41:27;101058.21;;;12.62;43.15
73518;BME280;61766;60.318;25.044;2023-06-04T03:43:52;101061.31;;;12.72;42.91
73518;BME280;61766;60.318;25.044;2023-06-04T03:46:17;101060.74;;;13.27;42.30
73518;BME280;61766;60.318;25.044;2023-06-04T03:48:42;101066.87;;;12.69;43.28
73518;BME280;61766;60.318;25.044;2023-06-04T03:51:07;101065.55;;;12.62;43.80
73518;BME280;61766;60.318;25.044;2023-06-04T03:53:32;101067.62;;;12.77;43.73
73518;BME280;61766;60.318;25.044;2023-06-04T03:55:57;101070.73;;;13.01;42.98
73518;BME280;61766;60.318;25.044;2023-06-04T03:58:22;101070.64;;;12.48;42.96
73518;BME280;61766;60.318;25.044;2023-06-04T04:00:47;101066.02;;;13.10;42.36
73518;BME280;61766;60.318;25.044;2023-06-04T04:03:12;101067.19;;;13.53;42.19
73518;BME280;61766;60.318;25.044;2023-06-04T04:05:37;101066.81;;;13.44;41.73
73518;BME280;61766;60.318;25.044;2023-06-04T04:08:03;101070.74;;;13.48;41.06
73518;BME280;61766;60.318;25.044;2023-06-04T04:10:28;101075.88;;;13.62;41.93
73518;BME280;61766;60.318;25.044;2023-06-04T04:12:52;101081.58;;;13.40;41.88
73518;BME280;61766;60.318;25.044;2023-06-04T04:15:17;101079.85;;;13.73;41.20
73518;BME280;61766;60.318;25.044;2023-06-04T04:17:42;101076.79;;;13.85;41.17
73518;BME280;61766;60.318;25.044;2023-06-04T04:20:08;101077.78;;;13.66;40.32
73518;BME280;61766;60.318;25.044;2023-06-04T04:22:33;101077.51;;;13.75;40.56
73518;BME280;61766;60.318;25.044;2023-06-04T04:24:58;101080.51;;;13.58;41.79
73518;BME280;61766;60.318;25.044;2023-06-04T04:27:23;101078.34;;;13.54;41.47
73518;BME280;61766;60.318;25.044;2023-06-04T04:29:48;101079.92;;;13.51;41.67
73518;BME280;61766;60.318;25.044;2023-06-04T04:32:13;101077.84;;;13.92;41.17
73518;BME280;61766;60.318;25.044;2023-06-04T04:34:49;101077.81;;;13.63;41.47
73518;BME280;61766;60.318;25.044;2023-06-04T04:37:03;101075.24;;;14.05;40.88
73518;BME280;61766;60.318;25.044;2023-06-04T04:39:29;101078.63;;;14.42;40.20
73518;BME280;61766;60.318;25.044;2023-06-04T04:41:54;101079.26;;;13.93;40.86
73518;BME280;61766;60.318;25.044;2023-06-04T04:44:19;101083.14;;;14.40;39.97
73518;BME280;61766;60.318;25.044;2023-06-04T04:46:44;101091.28;;;14.22;39.41
73518;BME280;61766;60.318;25.044;2023-06-04T04:49:09;101086.07;;;13.79;40.60
73518;BME280;61766;60.318;25.044;2023-06-04T04:51:35;101090.93;;;14.27;39.89
73518;BME280;61766;60.318;25.044;2023-06-04T04:53:59;101091.28;;;14.31;39.98
73518;BME280;61766;60.318;25.044;2023-06-04T04:56:24;101091.87;;;14.19;40.07
73518;BME280;61766;60.318;25.044;2023-06-04T04:58:49;101096.86;;;14.28;40.01
73518;BME280;61766;60.318;25.044;2023-06-04T05:01:14;101092.52;;;14.74;38.70
73518;BME280;61766;60.318;25.044;2023-06-04T05:03:39;101086.38;;;14.08;39.56
73518;BME280;61766;60.318;25.044;2023-06-04T05:06:04;101090.91;;;13.79;40.30
73518;BME280;61766;60.318;25.044;2023-06-04T05:08:29;101086.76;;;14.00;39.86
73518;BME280;61766;60.318;25.044;2023-06-04T05:10:54;101093.23;;;14.39;40.01
73518;BME280;61766;60.318;25.044;2023-06-04T05:13:19;101086.11;;;13.76;39.95
73518;BME280;61766;60.318;25.044;2023-06-04T05:15:44;101088.13;;;14.25;40.27
73518;BME280;61766;60.318;25.044;2023-06-04T05:18:10;101090.30;;;14.71;39.17
73518;BME280;61766;60.318;25.044;2023-06-04T05:20:34;101085.90;;;14.49;39.93
73518;BME280;61766;60.318;25.044;2023-06-04T05:22:59;101083.45;;;14.03;40.43
73518;BME280;61766;60.318;25.044;2023-06-04T05:25:24;101081.75;;;13.82;40.30
73518;BME280;61766;60.318;25.044;2023-06-04T05:27:49;101084.80;;;14.51;39.28
73518;BME280;61766;60.318;25.044;2023-06-04T05:30:14;101085.27;;;14.71;38.64
73518;BME280;61766;60.318;25.044;2023-06-04T05:32:39;101085.41;;;14.30;38.81
73518;BME280;61766;60.318;25.044;2023-06-04T05:35:04;101082.13;;;14.72;38.72
73518;BME280;61766;60.318;25.044;2023-06-04T05:37:29;101086.55;;;14.75;38.25
73518;BME280;61766;60.318;25.044;2023-06-04T05:39:55;101087.43;;;14.91;38.55
73518;BME280;61766;60.318;25.044;2023-06-04T05:42:20;101086.76;;;15.06;37.75
73518;BME280;61766;60.318;25.044;2023-06-04T05:44:46;101088.68;;;15.15;38.10
73518;BME280;61766;60.318;25.044;2023-06-04T05:47:12;101089.99;;;15.41;37.37
73518;BME280;61766;60.318;25.044;2023-06-04T05:49:37;101094.78;;;15.33;38.24
73518;BME280;61766;60.318;25.044;2023-06-04T05:52:05;101092.96;;;15.26;37.95
73518;BME280;61766;60.318;25.044;2023-06-04T05:54:30;101094.69;;;15.43;37.78
73518;BME280;61766;60.318;25.044;2023-06-04T05:56:55;101099.89;;;14.84;38.44
73518;BME280;61766;60.318;25.044;2023-06-04T05:59:21;101096.96;;;15.53;38.37
73518;BME280;61766;60.318;25.044;2023-06-04T06:01:47;101095.23;;;15.39;39.38
73518;BME280;61766;60.318;25.044;2023-06-04T06:04:14;101093.11;;;15.61;38.15
73518;BME280;61766;60.318;25.044;2023-06-04T06:06:39;101090.22;;;15.57;37.21
73518;BME280;61766;60.318;25.044;2023-06-04T06:09:04;101087.45;;;15.54;37.92
73518;BME280;61766;60.318;25.044;2023-06-04T06:11:30;101084.64;;;16.19;36.01
73518;BME280;61766;60.318;25.044;2023-06-04T06:13:56;101084.77;;;16.19;36.45
73518;BME280;61766;60.318;25.044;2023-06-04T06:16:22;101083.87;;;17.00;35.86
73518;BME280;61766;60.318;25.044;2023-06-04T06:18:48;101084.93;;;16.82;35.37
73518;BME280;61766;60.318;25.044;2023-06-04T06:21:13;101089.00;;;16.63;34.73
73518;BME280;61766;60.318;25.044;2023-06-04T06:23:39;101091.95;;;16.68;35.59
73518;BME280;61766;60.318;25.044;2023-06-04T06:26:05;101094.98;;;17.03;34.80
73518;BME280;61766;60.318;25.044;2023-06-04T06:28:31;101097.99;;;17.13;34.14
73518;BME280;61766;60.318;25.044;2023-06-04T06:30:56;101099.11;;;16.82;34.10
73518;BME280;61766;60.318;25.044;2023-06-04T06:33:22;101100.30;;;17.43;34.04
73518;BME280;61766;60.318;25.044;2023-06-04T06:35:48;101103.63;;;17.55;33.48
73518;BME280;61766;60.318;25.044;2023-06-04T06:38:14;101105.18;;;17.50;33.67
73518;BME280;61766;60.318;25.044;2023-06-04T06:40:41;101108.13;;;17.05;33.70
73518;BME280;61766;60.318;25.044;2023-06-04T06:43:05;101113.48;;;17.50;34.76
73518;BME280;61766;60.318;25.044;2023-06-04T06:45:31;101109.04;;;17.74;34.79
73518;BME280;61766;60.318;25.044;2023-06-04T06:47:57;101112.22;;;18.16;33.91
73518;BME280;61766;60.318;25.044;2023-06-04T06:50:23;101113.77;;;18.14;32.37
73518;BME280;61766;60.318;25.044;2023-06-04T06:52:49;101115.96;;;18.04;33.13
73518;BME280;61766;60.318;25.044;2023-06-04T06:55:14;101114.80;;;18.87;31.77
73518;BME280;61766;60.318;25.044;2023-06-04T06:57:40;101114.68;;;18.77;31.77
73518;BME280;61766;60.318;25.044;2023-06-04T07:00:07;101108.21;;;18.71;31.22
73518;BME280;61766;60.318;25.044;2023-06-04T07:02:32;101108.45;;;18.37;30.30
73518;BME280;61766;60.318;25.044;2023-06-04T07:04:57;101109.21;;;18.41;32.11
73518;BME280;61766;60.318;25.044;2023-06-04T07:07:23;101104.63;;;18.18;32.53
73518;BME280;61766;60.318;25.044;2023-06-04T07:09:49;101102.51;;;19.15;30.24
73518;BME280;61766;60.318;25.044;2023-06-04T07:12:15;101102.94;;;18.87;30.86
73518;BME280;61766;60.318;25.044;2023-06-04T07:14:41;101103.19;;;19.49;30.95
73518;BME280;61766;60.318;25.044;2023-06-04T07:17:06;101101.55;;;19.42;29.85
73518;BME280;61766;60.318;25.044;2023-06-04T07:19:32;101100.02;;;19.46;30.44
73518;BME280;61766;60.318;25.044;2023-06-04T07:21:58;101102.94;;;19.89;29.08
73518;BME280;61766;60.318;25.044;2023-06-04T07:24:24;101108.33;;;19.53;28.79
73518;BME280;61766;60.318;25.044;2023-06-04T07:26:49;101103.30;;;19.65;28.21
73518;BME280;61766;60.318;25.044;2023-06-04T07:29:15;101107.37;;;20.08;28.79
73518;BME280;61766;60.318;25.044;2023-06-04T07:31:41;101101.11;;;19.21;27.53
73518;BME280;61766;60.318;25.044;2023-06-04T07:34:06;101099.88;;;19.84;31.02
73518;BME280;61766;60.318;25.044;2023-06-04T07:36:32;101101.50;;;20.12;29.67
73518;BME280;61766;60.318;25.044;2023-06-04T07:38:58;101104.67;;;20.51;30.63
73518;BME280;61766;60.318;25.044;2023-06-04T07:41:23;101108.60;;;19.12;31.67
73518;BME280;61766;60.318;25.044;2023-06-04T07:43:49;101106.00;;;19.48;28.77
73518;BME280;61766;60.318;25.044;2023-06-04T07:46:15;101106.22;;;19.29;30.96
73518;BME280;61766;60.318;25.044;2023-06-04T07:48:41;101105.48;;;19.25;33.09
73518;BME280;61766;60.318;25.044;2023-06-04T07:51:06;101109.60;;;19.25;31.17
73518;BME280;61766;60.318;25.044;2023-06-04T07:53:32;101100.50;;;18.40;30.07
73518;BME280;61766;60.318;25.044;2023-06-04T07:55:58;101116.28;;;18.87;31.07
73518;BME280;61766;60.318;25.044;2023-06-04T07:58:24;101113.18;;;19.35;29.59
73518;BME280;61766;60.318;25.044;2023-06-04T08:00:49;101119.67;;;20.05;31.41
73518;BME280;61766;60.318;25.044;2023-06-04T08:03:15;101117.16;;;19.88;29.84
73518;BME280;61766;60.318;25.044;2023-06-04T08:05:41;101109.92;;;20.33;28.17
73518;BME280;61766;60.318;25.044;2023-06-04T08:08:07;101107.73;;;20.50;27.57
73518;BME280;61766;60.318;25.044;2023-06-04T08:10:32;101110.88;;;20.91;27.19
73518;BME280;61766;60.318;25.044;2023-06-04T08:12:58;101112.66;;;21.35;26.19
73518;BME280;61766;60.318;25.044;2023-06-04T08:15:24;101112.95;;;21.28;26.99
73518;BME280;61766;60.318;25.044;2023-06-04T08:17:49;101118.86;;;21.11;26.97
73518;BME280;61766;60.318;25.044;2023-06-04T08:20:15;101117.46;;;20.91;27.59
73518;BME280;61766;60.318;25.044;2023-06-04T08:22:41;101125.40;;;20.70;25.22
73518;BME280;61766;60.318;25.044;2023-06-04T08:25:07;101125.76;;;21.10;24.93
73518;BME280;61766;60.318;25.044;2023-06-04T08:27:32;101126.12;;;21.01;25.30
73518;BME280;61766;60.318;25.044;2023-06-04T08:29:58;101125.73;;;21.30;26.61
73518;BME280;61766;60.318;25.044;2023-06-04T08:32:23;101128.46;;;21.13;28.11
73518;BME280;61766;60.318;25.044;2023-06-04T08:34:49;101133.08;;;20.66;26.42
73518;BME280;61766;60.318;25.044;2023-06-04T08:37:16;101134.44;;;20.48;25.22
73518;BME280;61766;60.318;25.044;2023-06-04T08:39:41;101133.29;;;19.77;26.91
73518;BME280;61766;60.318;25.044;2023-06-04T08:42:07;101137.40;;;19.65;27.30
73518;BME280;61766;60.318;25.044;2023-06-04T08:44:32;101130.60;;;19.75;26.82
73518;BME280;61766;60.318;25.044;2023-06-04T08:47:02;101137.47;;;20.06;27.13
73518;BME280;61766;60.318;25.044;2023-06-04T08:49:25;101132.38;;;20.01;26.51
73518;BME280;61766;60.318;25.044;2023-06-04T08:51:49;101132.08;;;20.10;27.17
73518;BME280;61766;60.318;25.044;2023-06-04T08:54:15;101126.57;;;20.73;26.87
73518;BME280;61766;60.318;25.044;2023-06-04T08:56:41;101123.53;;;21.39;24.57
73518;BME280;61766;60.318;25.044;2023-06-04T08:59:09;101122.04;;;21.39;25.09
73518;BME280;61766;60.318;25.044;2023-06-04T09:01:33;101130.15;;;20.77;24.48
73518;BME280;61766;60.318;25.044;2023-06-04T09:03:59;101138.42;;;20.52;25.30
73518;BME280;61766;60.318;25.044;2023-06-04T09:06:25;101137.54;;;19.50;25.58
73518;BME280;61766;60.318;25.044;2023-06-04T09:08:50;101136.95;;;19.98;25.81
73518;BME280;61766;60.318;25.044;2023-06-04T09:11:16;101136.93;;;20.40;25.58
73518;BME280;61766;60.318;25.044;2023-06-04T09:13:43;101140.44;;;20.17;24.72
73518;BME280;61766;60.318;25.044;2023-06-04T09:16:07;101138.35;;;20.28;26.47
73518;BME280;61766;60.318;25.044;2023-06-04T09:18:33;101133.51;;;21.01;25.86
73518;BME280;61766;60.318;25.044;2023-06-04T09:21:03;101131.07;;;20.97;24.98
73518;BME280;61766;60.318;25.044;2023-06-04T09:23:24;101131.26;;;21.10;25.09
73518;BME280;61766;60.318;25.044;2023-06-04T09:25:50;101140.58;;;21.14;23.85
73518;BME280;61766;60.318;25.044;2023-06-04T09:28:15;101149.08;;;20.44;24.03
73518;BME280;61766;60.318;25.044;2023-06-04T09:30:50;101147.07;;;20.59;23.65
73518;BME280;61766;60.318;25.044;2023-06-04T09:33:08;101147.63;;;20.39;23.62
73518;BME280;61766;60.318;25.044;2023-06-04T09:35:33;101159.16;;;19.84;23.97
73518;BME280;61766;60.318;25.044;2023-06-04T09:37:58;101156.56;;;19.55;24.54
73518;BME280;61766;60.318;25.044;2023-06-04T09:40:24;101156.14;;;19.67;24.09
73518;BME280;61766;60.318;25.044;2023-06-04T09:42:51;101158.28;;;19.74;25.25
73518;BME280;61766;60.318;25.044;2023-06-04T09:45:26;101156.78;;;19.89;24.31
73518;BME280;61766;60.318;25.044;2023-06-04T09:47:42;101155.76;;;20.01;23.93
73518;BME280;61766;60.318;25.044;2023-06-04T09:50:09;101154.63;;;19.64;25.01
73518;BME280;61766;60.318;25.044;2023-06-04T09:52:33;101156.11;;;19.71;25.19
73518;BME280;61766;60.318;25.044;2023-06-04T09:54:58;101153.20;;;19.78;24.09
73518;BME280;61766;60.318;25.044;2023-06-04T09:57:25;101150.52;;;19.49;25.35
73518;BME280;61766;60.318;25.044;2023-06-04T09:59:50;101151.90;;;20.24;23.90
73518;BME280;61766;60.318;25.044;2023-06-04T10:02:19;101153.26;;;20.04;25.30
73518;BME280;61766;60.318;25.044;2023-06-04T10:04:42;101150.17;;;19.56;24.54
73518;BME280;61766;60.318;25.044;2023-06-04T10:07:09;101166.32;;;20.02;24.99
73518;BME280;61766;60.318;25.044;2023-06-04T10:09:34;101174.08;;;19.94;25.73
73518;BME280;61766;60.318;25.044;2023-06-04T10:12:00;101174.99;;;19.65;26.65
73518;BME280;61766;60.318;25.044;2023-06-04T10:14:31;101176.32;;;19.69;27.51
73518;BME280;61766;60.318;25.044;2023-06-04T10:16:51;101175.08;;;19.82;26.26
73518;BME280;61766;60.318;25.044;2023-06-04T10:19:16;101168.31;;;19.82;26.86
73518;BME280;61766;60.318;25.044;2023-06-04T10:21:42;101170.38;;;19.89;26.73
73518;BME280;61766;60.318;25.044;2023-06-04T10:24:08;101171.57;;;20.16;25.72
73518;BME280;61766;60.318;25.044;2023-06-04T10:26:34;101173.34;;;20.10;25.74
73518;BME280;61766;60.318;25.044;2023-06-04T10:29:00;101174.44;;;20.20;24.54
73518;BME280;61766;60.318;25.044;2023-06-04T10:31:26;101175.64;;;19.41;25.36
73518;BME280;61766;60.318;25.044;2023-06-04T10:33:54;101176.90;;;19.86;25.68
73518;BME280;61766;60.318;25.044;2023-06-04T10:36:18;101173.40;;;19.89;25.76
73518;BME280;61766;60.318;25.044;2023-06-04T10:38:45;101176.18;;;20.47;25.81
73518;BME280;61766;60.318;25.044;2023-06-04T10:41:13;101179.97;;;20.67;25.11
73518;BME280;61766;60.318;25.044;2023-06-04T10:43:33;101192.57;;;20.29;24.49
73518;BME280;61766;60.318;25.044;2023-06-04T10:48:25;101201.89;;;19.96;24.26
73518;BME280;61766;60.318;25.044;2023-06-04T10:50:52;101199.32;;;19.88;24.43
73518;BME280;61766;60.318;25.044;2023-06-04T10:53:17;101205.77;;;19.69;24.02
73518;BME280;61766;60.318;25.044;2023-06-04T10:55:44;101207.04;;;19.02;24.93
73518;BME280;61766;60.318;25.044;2023-06-04T10:58:08;101213.19;;;18.86;25.44
73518;BME280;61766;60.318;25.044;2023-06-04T11:00:36;101212.07;;;18.99;24.86
73518;BME280;61766;60.318;25.044;2023-06-04T11:03:00;101209.28;;;19.19;25.78
73518;BME280;61766;60.318;25.044;2023-06-04T11:05:34;101212.70;;;19.79;26.32
73518;BME280;61766;60.318;25.044;2023-06-04T11:07:51;101210.37;;;19.88;25.98
73518;BME280;61766;60.318;25.044;2023-06-04T11:10:17;101214.93;;;19.63;25.65
73518;BME280;61766;60.318;25.044;2023-06-04T11:12:43;101217.09;;;20.30;25.42
73518;BME280;61766;60.318;25.044;2023-06-04T11:15:09;101216.56;;;20.20;24.88
73518;BME280;61766;60.318;25.044;2023-06-04T11:17:34;101218.33;;;20.58;24.76
73518;BME280;61766;60.318;25.044;2023-06-04T11:20:00;101216.17;;;20.35;25.53
73518;BME280;61766;60.318;25.044;2023-06-04T11:22:26;101220.33;;;20.52;24.61
73518;BME280;61766;60.318;25.044;2023-06-04T11:24:56;101217.07;;;20.70;24.53
73518;BME280;61766;60.318;25.044;2023-06-04T11:27:17;101217.56;;;20.78;25.18
73518;BME280;61766;60.318;25.044;2023-06-04T11:29:43;101218.76;;;20.83;25.12
73518;BME280;61766;60.318;25.044;2023-06-04T11:32:09;101220.81;;;20.80;26.54
73518;BME280;61766;60.318;25.044;2023-06-04T11:34:34;101216.62;;;20.90;24.12
73518;BME280;61766;60.318;25.044;2023-06-04T11:37:07;101218.37;;;20.96;24.53
73518;BME280;61766;60.318;25.044;2023-06-04T11:39:33;101222.93;;;20.78;25.44
73518;BME280;61766;60.318;25.044;2023-06-04T11:41:52;101220.97;;;21.31;24.03
73518;BME280;61766;60.318;25.044;2023-06-04T11:44:19;101219.87;;;21.06;22.92
73518;BME280;61766;60.318;25.044;2023-06-04T11:46:43;101221.55;;;21.16;22.25
73518;BME280;61766;60.318;25.044;2023-06-04T11:49:15;101216.60;;;21.65;21.73
73518;BME280;61766;60.318;25.044;2023-06-04T11:51:35;101215.04;;;21.60;21.44
73518;BME280;61766;60.318;25.044;2023-06-04T11:54:01;101223.43;;;21.46;22.65
73518;BME280;61766;60.318;25.044;2023-06-04T11:56:26;101229.95;;;21.03;23.20
73518;BME280;61766;60.318;25.044;2023-06-04T11:58:53;101242.47;;;21.23;23.55
73518;BME280;61766;60.318;25.044;2023-06-04T12:01:17;101241.11;;;20.87;23.22
73518;BME280;61766;60.318;25.044;2023-06-04T12:03:43;101247.56;;;21.45;24.67
73518;BME280;61766;60.318;25.044;2023-06-04T12:06:13;101254.08;;;21.24;24.71
73518;BME280;61766;60.318;25.044;2023-06-04T12:08:45;101259.22;;;20.24;25.04
73518;BME280;61766;60.318;25.044;2023-06-04T12:11:00;101261.54;;;18.83;24.89
73518;BME280;61766;60.318;25.044;2023-06-04T12:13:25;101262.34;;;20.05;25.36
73518;BME280;61766;60.318;25.044;2023-06-04T12:15:53;101263.71;;;20.34;24.54
73518;BME280;61766;60.318;25.044;2023-06-04T12:18:23;101261.61;;;20.22;24.91
73518;BME280;61766;60.318;25.044;2023-06-04T12:20:42;101264.55;;;20.98;26.75
73518;BME280;61766;60.318;25.044;2023-06-04T12:23:08;101269.25;;;21.06;24.41
73518;BME280;61766;60.318;25.044;2023-06-04T12:25:34;101268.03;;;20.40;24.15
73518;BME280;61766;60.318;25.044;2023-06-04T12:27:59;101274.37;;;21.00;24.10
73518;BME280;61766;60.318;25.044;2023-06-04T12:30:35;101267.76;;;20.72;24.64
73518;BME280;61766;60.318;25.044;2023-06-04T12:32:51;101270.68;;;20.75;23.84